createdAt,value
2018-09-01T16:42:46.000Z,0.054
2018-09-01T16:43:19.000Z,0.084
2018-09-01T16:44:17.000Z,0.054
2018-09-01T16:45:16.000Z,0.104
2018-09-01T16:46:15.000Z,0.022
2018-09-01T16:47:14.000Z,0.041
2018-09-01T16:48:14.000Z,0.030
2018-09-01T16:49:14.000Z,0.116
2018-09-01T16:50:15.000Z,0.012
2018-09-01T16:51:15.000Z,0.065
2018-09-01T16:52:14.000Z,0.031
2018-09-01T16:53:15.000Z,0.030
2018-09-01T16:54:15.000Z,0.002
2018-09-01T16:55:14.000Z,0.074
2018-09-01T16:56:15.000Z,0.026
2018-09-01T16:57:15.000Z,0.044
2018-09-01T16:58:14.000Z,0.046
2018-09-01T16:59:15.000Z,0.028
2018-09-01T17:00:15.000Z,0.010
2018-09-01T17:01:15.000Z,0.035
2018-09-01T17:02:15.000Z,0.009
2018-09-01T17:03:14.000Z,0.062
2018-09-01T17:04:15.000Z,0.044
2018-09-01T17:05:14.000Z,0.036
2018-09-01T17:06:15.000Z,0.010
2018-09-01T17:07:14.000Z,0.015
2018-09-01T17:08:14.000Z,0.008
2018-09-01T17:09:14.000Z,0.026
2018-09-01T17:10:15.000Z,0.025
2018-09-01T17:11:14.000Z,0.040
2018-09-01T17:12:15.000Z,0.086
2018-09-01T17:13:14.000Z,0.040
2018-09-01T17:14:14.000Z,0.005
2018-09-01T17:15:15.000Z,0.055
2018-09-01T17:16:15.000Z,0.044
2018-09-01T17:17:15.000Z,0.006
2018-09-01T17:18:14.000Z,0.141
2018-09-01T17:19:14.000Z,0.103
2018-09-01T17:20:15.000Z,0.165
2018-09-01T17:21:14.000Z,0.121
2018-09-01T17:22:15.000Z,0.034
2018-09-01T17:23:15.000Z,0.137
2018-09-01T17:24:14.000Z,0.076
2018-09-01T17:25:15.000Z,0.083
2018-09-01T17:26:15.000Z,0.085
2018-09-01T17:27:14.000Z,0.324
2018-09-01T17:28:14.000Z,0.049
2018-09-01T17:29:14.000Z,0.098
2018-09-01T17:30:15.000Z,0.028
2018-09-01T17:31:14.000Z,0.016
2018-09-01T17:32:14.000Z,0.057
2018-09-01T17:33:14.000Z,0.240
2018-09-01T17:34:15.000Z,0.260
2018-09-01T17:35:14.000Z,0.074
2018-09-01T17:36:15.000Z,0.054
2018-09-01T17:37:14.000Z,0.013
2018-09-01T17:38:14.000Z,0.071
2018-09-01T17:39:15.000Z,0.131
2018-09-01T17:40:14.000Z,0.055
2018-09-01T17:41:15.000Z,0.123
2018-09-01T17:42:15.000Z,0.035
2018-09-01T17:43:15.000Z,0.067
2018-09-01T17:44:15.000Z,0.146
2018-09-01T17:45:14.000Z,0.008
2018-09-01T17:46:14.000Z,0.085
2018-09-01T17:47:15.000Z,0.068
2018-09-01T17:48:15.000Z,0.005
2018-09-01T17:49:15.000Z,0.050
2018-09-01T17:50:15.000Z,0.038
2018-09-01T17:51:14.000Z,0.093
2018-09-01T17:52:14.000Z,0.038
2018-09-01T17:53:15.000Z,0.075
2018-09-01T17:54:15.000Z,0.032
2018-09-01T17:55:15.000Z,0.061
2018-09-01T17:56:15.000Z,0.047
2018-09-01T17:57:15.000Z,0.028
2018-09-01T17:58:14.000Z,0.067
2018-09-01T17:59:15.000Z,0.110
2018-09-01T18:01:15.000Z,0.330
2018-09-01T18:02:14.000Z,0.160
2018-09-01T18:03:14.000Z,0.046
2018-09-01T18:04:15.000Z,0.039
2018-09-01T18:05:14.000Z,0.015
2018-09-01T18:06:14.000Z,0.028
2018-09-01T18:07:14.000Z,0.135
2018-09-01T18:08:15.000Z,0.056
2018-09-01T18:09:14.000Z,0.029
2018-09-01T18:10:14.000Z,0.053
2018-09-01T18:11:15.000Z,0.058
2018-09-01T18:12:14.000Z,0.141
2018-09-01T18:13:15.000Z,0.065
2018-09-01T18:14:14.000Z,0.068
2018-09-01T18:15:15.000Z,0.019
2018-09-01T18:16:15.000Z,0.042
2018-09-01T18:17:15.000Z,0.114
2018-09-01T18:18:15.000Z,0.093
2018-09-01T18:19:14.000Z,0.070
2018-09-01T18:20:14.000Z,0.019
2018-09-01T18:21:14.000Z,0.078
2018-09-01T18:22:14.000Z,0.064
2018-09-01T18:23:14.000Z,0.060
2018-09-01T18:24:14.000Z,0.028
2018-09-01T18:25:15.000Z,0.137
2018-09-01T18:26:14.000Z,0.102
2018-09-01T18:27:15.000Z,0.098
2018-09-01T18:28:15.000Z,0.232
2018-09-01T18:29:14.000Z,0.133
2018-09-01T18:30:15.000Z,0.060
2018-09-01T18:31:14.000Z,0.060
2018-09-01T18:32:14.000Z,0.089
2018-09-01T18:33:14.000Z,0.019
2018-09-01T18:34:15.000Z,0.100
2018-09-01T18:35:14.000Z,0.184
2018-09-01T18:36:14.000Z,0.119
2018-09-01T18:37:14.000Z,0.060
2018-09-01T18:38:14.000Z,0.045
2018-09-01T18:39:15.000Z,0.087
2018-09-01T18:40:14.000Z,0.042
2018-09-01T18:41:15.000Z,0.024
2018-09-01T18:42:15.000Z,0.152
2018-09-01T18:43:14.000Z,0.077
2018-09-01T18:44:15.000Z,0.164
2018-09-01T18:45:14.000Z,0.059
2018-09-01T18:46:15.000Z,0.051
2018-09-01T18:47:15.000Z,0.072
2018-09-01T18:48:15.000Z,0.033
2018-09-01T18:49:14.000Z,0.022
2018-09-01T18:50:14.000Z,0.078
2018-09-01T18:51:14.000Z,0.069
2018-09-01T18:52:14.000Z,0.021
2018-09-01T18:53:14.000Z,0.063
2018-09-01T18:54:14.000Z,0.054
2018-09-01T18:55:14.000Z,0.038
2018-09-01T18:56:14.000Z,1.548
2018-09-01T18:57:15.000Z,2.399
